Time,TemperatureF,DewpointF,PressureIn,WindDirection,WindDirectionDegrees,WindSpeedMPH,WindSpeedGustMPH,Humidity,HourlyPrecipIn,Conditions,Clouds,dailyrainin,SoftwareType,DateUTC
2013-04-01 00:02:00,39.6,14.2,29.96,North,6,2.0,6.0,35,0.00,,,0.00,meteohub,2013-04-01 06:02:00,
2013-04-01 00:08:00,39.6,14.2,29.96,NW,323,2.0,6.0,35,0.00,,,0.00,meteohub,2013-04-01 06:08:00,
2013-04-01 00:13:00,39.6,13.5,29.96,SSE,159,1.0,4.0,34,0.00,,,0.00,meteohub,2013-04-01 06:13:00,
2013-04-01 00:19:00,38.8,13.5,29.96,SSE,147,2.0,4.0,35,0.00,,,0.00,meteohub,2013-04-01 06:19:00,
2013-04-01 00:24:00,39.4,13.3,29.97,ESE,123,0.0,3.0,34,0.00,,,0.00,meteohub,2013-04-01 06:24:00,
2013-04-01 00:30:00,39.7,13.6,29.97,ESE,115,0.0,3.0,34,0.00,,,0.00,meteohub,2013-04-01 06:30:00,
2013-04-01 00:36:00,40.3,13.5,29.96,NNE,30,0.0,2.0,33,0.00,,,0.00,meteohub,2013-04-01 06:36:00,
2013-04-01 00:42:00,40.1,13.3,29.96,NNW,328,2.0,2.0,33,0.00,,,0.00,meteohub,2013-04-01 06:42:00,
2013-04-01 00:47:00,39.7,13.6,29.97,NNW,330,3.0,4.0,34,0.00,,,0.00,meteohub,2013-04-01 06:47:00,
2013-04-01 00:52:00,39.2,13.8,29.97,NNE,28,3.0,4.0,35,0.00,,,0.00,meteohub,2013-04-01 06:52:00,
2013-04-01 00:57:00,38.7,14.0,29.96,NNW,333,2.0,4.0,36,0.00,,,0.00,meteohub,2013-04-01 06:57:00,
2013-04-01 01:02:00,38.3,13.6,29.97,NW,322,2.0,4.0,36,0.00,,,0.00,meteohub,2013-04-01 07:02:00,
2013-04-01 01:07:00,37.8,14.4,29.96,NW,323,2.0,4.0,38,0.00,,,0.00,meteohub,2013-04-01 07:07:00,
2013-04-01 01:12:00,37.6,14.2,29.97,NW,322,3.0,5.0,38,0.00,,,0.00,meteohub,2013-04-01 07:12:00,
2013-04-01 01:18:00,37.0,14.4,29.97,NNW,328,5.0,5.0,39,0.00,,,0.00,meteohub,2013-04-01 07:18:00,
2013-04-01 01:23:00,36.9,14.7,29.97,NNW,327,5.0,6.0,40,0.00,,,0.00,meteohub,2013-04-01 07:23:00,
2013-04-01 01:29:00,36.9,15.4,29.97,NNW,328,3.0,6.0,41,0.00,,,0.00,meteohub,2013-04-01 07:29:00,
2013-04-01 01:34:00,36.5,15.1,29.97,NW,323,4.0,6.0,41,0.00,,,0.00,meteohub,2013-04-01 07:34:00,
2013-04-01 01:40:00,36.5,15.6,29.97,NW,323,5.0,6.0,42,0.00,,,0.00,meteohub,2013-04-01 07:40:00,
2013-04-01 01:45:00,36.3,15.4,29.97,NNW,346,3.0,6.0,42,0.00,,,0.00,meteohub,2013-04-01 07:45:00,
2013-04-01 01:51:00,36.0,15.1,29.96,NNW,331,5.0,6.0,42,0.00,,,0.00,meteohub,2013-04-01 07:51:00,
2013-04-01 01:57:00,35.8,15.4,29.96,NW,318,1.0,6.0,43,0.00,,,0.00,meteohub,2013-04-01 07:57:00,
2013-04-01 02:02:00,35.2,15.4,29.96,NW,321,2.0,5.0,44,0.00,,,0.00,meteohub,2013-04-01 08:02:00,
2013-04-01 02:08:00,35.1,15.3,29.96,WNW,297,2.0,5.0,44,0.00,,,0.00,meteohub,2013-04-01 08:08:00,
2013-04-01 02:14:00,35.2,14.9,29.96,WNW,286,1.0,3.0,43,0.00,,,0.00,meteohub,2013-04-01 08:14:00,
2013-04-01 02:19:00,36.0,14.5,29.96,WNW,286,0.0,3.0,41,0.00,,,0.00,meteohub,2013-04-01 08:19:00,
2013-04-01 02:25:00,35.8,14.9,29.96,NNE,30,2.0,3.0,42,0.00,,,0.00,meteohub,2013-04-01 08:25:00,
2013-04-01 02:30:00,34.9,15.3,29.96,North,7,3.0,3.0,44,0.00,,,0.00,meteohub,2013-04-01 08:30:00,
2013-04-01 02:36:00,34.0,15.4,29.96,NNW,333,3.0,3.0,46,0.00,,,0.00,meteohub,2013-04-01 08:36:00,
2013-04-01 02:42:00,33.4,15.4,29.96,NW,319,3.0,4.0,47,0.00,,,0.00,meteohub,2013-04-01 08:42:00,
2013-04-01 02:47:00,33.1,15.1,29.96,NW,323,2.0,4.0,47,0.00,,,0.00,meteohub,2013-04-01 08:47:00,
2013-04-01 02:52:00,33.4,14.9,29.96,NNW,338,5.0,5.0,46,0.00,,,0.00,meteohub,2013-04-01 08:52:00,
2013-04-01 02:57:00,34.2,14.5,29.96,NW,317,4.0,6.0,44,0.00,,,0.00,meteohub,2013-04-01 08:57:00,
2013-04-01 03:03:00,34.2,15.1,29.96,NNW,327,4.0,6.0,45,0.00,,,0.00,meteohub,2013-04-01 09:03:00,
2013-04-01 03:08:00,33.6,15.1,29.96,NNW,328,4.0,7.0,46,0.00,,,0.00,meteohub,2013-04-01 09:08:00,
2013-04-01 03:14:00,33.4,14.9,29.96,NW,320,7.0,7.0,46,0.00,,,0.00,meteohub,2013-04-01 09:14:00,
2013-04-01 03:19:00,33.1,15.1,29.96,NNW,333,7.0,7.0,47,0.00,,,0.00,meteohub,2013-04-01 09:19:00,
2013-04-01 03:25:00,32.5,14.5,29.96,NW,308,3.0,8.0,47,0.00,,,0.00,meteohub,2013-04-01 09:25:00,
2013-04-01 03:31:00,33.1,14.5,29.97,NNW,329,3.0,8.0,46,0.00,,,0.00,meteohub,2013-04-01 09:31:00,
2013-04-01 03:37:00,33.6,14.5,29.97,NNW,329,5.0,7.0,45,0.00,,,0.00,meteohub,2013-04-01 09:37:00,
2013-04-01 03:42:00,34.0,14.4,29.97,NW,320,4.0,8.0,44,0.00,,,0.00,meteohub,2013-04-01 09:42:00,
2013-04-01 03:47:00,34.2,14.5,29.97,NNW,342,4.0,8.0,44,0.00,,,0.00,meteohub,2013-04-01 09:47:00,
2013-04-01 03:52:00,34.3,14.7,29.97,NW,322,3.0,7.0,44,0.00,,,0.00,meteohub,2013-04-01 09:52:00,
2013-04-01 03:58:00,34.7,14.5,29.97,NNW,332,4.0,7.0,43,0.00,,,0.00,meteohub,2013-04-01 09:58:00,
2013-04-01 04:03:00,35.1,14.9,29.97,NW,316,2.0,7.0,43,0.00,,,0.00,meteohub,2013-04-01 10:03:00,
2013-04-01 04:09:00,35.2,14.4,29.97,NW,326,1.0,7.0,42,0.00,,,0.00,meteohub,2013-04-01 10:09:00,
2013-04-01 04:14:00,35.6,14.2,29.97,NW,322,4.0,6.0,41,0.00,,,0.00,meteohub,2013-04-01 10:14:00,
2013-04-01 04:19:00,36.0,14.5,29.97,NW,326,3.0,6.0,41,0.00,,,0.00,meteohub,2013-04-01 10:19:00,
2013-04-01 04:25:00,36.0,14.5,29.97,NNW,347,0.0,6.0,41,0.00,,,0.00,meteohub,2013-04-01 10:25:00,
2013-04-01 04:30:00,34.9,14.2,29.97,SSW,201,2.0,6.0,42,0.00,,,0.00,meteohub,2013-04-01 10:30:00,
2013-04-01 04:36:00,33.3,14.2,29.97,NW,326,1.0,4.0,45,0.00,,,0.00,meteohub,2013-04-01 10:36:00,
2013-04-01 04:42:00,33.6,14.0,29.97,NW,319,1.0,3.0,44,0.00,,,0.00,meteohub,2013-04-01 10:42:00,
2013-04-01 04:47:00,33.6,14.0,29.97,WNW,290,0.0,3.0,44,0.00,,,0.00,meteohub,2013-04-01 10:47:00,
2013-04-01 04:53:00,33.3,14.2,29.98,SSE,159,4.0,4.0,45,0.00,,,0.00,meteohub,2013-04-01 10:53:00,
2013-04-01 04:58:00,31.6,13.6,29.98,South,179,2.0,4.0,47,0.00,,,0.00,meteohub,2013-04-01 10:58:00,
2013-04-01 05:04:00,30.6,14.5,29.98,SSE,165,4.0,4.0,51,0.00,,,0.00,meteohub,2013-04-01 11:04:00,
2013-04-01 05:09:00,30.4,14.9,29.98,SW,225,2.0,6.0,52,0.00,,,0.00,meteohub,2013-04-01 11:09:00,
2013-04-01 05:15:00,30.4,15.3,29.98,SW,225,3.0,6.0,53,0.00,,,0.00,meteohub,2013-04-01 11:15:00,
2013-04-01 05:21:00,32.2,14.7,29.98,WSW,256,3.0,5.0,48,0.00,,,0.00,meteohub,2013-04-01 11:21:00,
2013-04-01 05:27:00,34.3,14.7,29.99,West,260,3.0,5.0,44,0.00,,,0.00,meteohub,2013-04-01 11:27:00,
2013-04-01 05:32:00,35.1,14.9,29.99,South,186,0.0,6.0,43,0.00,,,0.00,meteohub,2013-04-01 11:32:00,
2013-04-01 05:37:00,34.2,14.5,29.99,WSW,250,1.0,6.0,44,0.00,,,0.00,meteohub,2013-04-01 11:37:00,
2013-04-01 05:42:00,34.5,14.9,29.99,West,266,1.0,6.0,44,0.00,,,0.00,meteohub,2013-04-01 11:42:00,
2013-04-01 05:47:00,34.9,14.7,29.99,WSW,241,0.0,4.0,43,0.00,,,0.00,meteohub,2013-04-01 11:47:00,
2013-04-01 05:52:00,35.2,13.8,29.99,SW,221,2.0,4.0,41,0.00,,,0.00,meteohub,2013-04-01 11:52:00,
2013-04-01 05:57:00,35.1,14.4,29.99,WSW,253,3.0,4.0,42,0.00,,,0.00,meteohub,2013-04-01 11:57:00,
2013-04-01 06:02:00,34.3,14.2,29.99,SSW,207,1.0,4.0,43,0.00,,,0.00,meteohub,2013-04-01 12:02:00,
2013-04-01 06:08:00,34.0,14.4,29.99,SSW,207,2.0,4.0,44,0.00,,,0.00,meteohub,2013-04-01 12:08:00,
2013-04-01 06:14:00,33.6,14.0,29.99,SSW,194,0.0,3.0,44,0.00,,,0.00,meteohub,2013-04-01 12:14:00,
2013-04-01 06:19:00,33.3,14.2,29.99,SSW,210,0.0,3.0,45,0.00,,,0.00,meteohub,2013-04-01 12:19:00,
2013-04-01 06:24:00,33.3,14.2,29.99,SE,134,1.0,3.0,45,0.00,,,0.00,meteohub,2013-04-01 12:24:00,
2013-04-01 06:30:00,33.1,14.5,30.00,SE,126,0.0,2.0,46,0.00,,,0.00,meteohub,2013-04-01 12:30:00,
2013-04-01 06:35:00,32.4,14.4,30.00,SE,126,0.0,2.0,47,0.00,,,0.00,meteohub,2013-04-01 12:35:00,
2013-04-01 06:41:00,32.0,14.0,30.00,South,169,1.0,2.0,47,0.00,,,0.00,meteohub,2013-04-01 12:41:00,
2013-04-01 06:47:00,32.2,14.7,30.00,SSE,151,0.0,3.0,48,0.00,,,0.00,meteohub,2013-04-01 12:47:00,
2013-04-01 06:52:00,31.8,14.9,30.00,NNE,21,1.0,3.0,49,0.00,,,0.00,meteohub,2013-04-01 12:52:00,
2013-04-01 06:57:00,30.9,14.9,30.00,NNW,330,1.0,3.0,51,0.00,,,0.00,meteohub,2013-04-01 12:57:00,
2013-04-01 07:03:00,30.9,14.9,30.00,NNW,336,0.0,2.0,51,0.00,,,0.00,meteohub,2013-04-01 13:03:00,
2013-04-01 07:08:00,31.3,15.3,30.00,NNW,336,0.0,2.0,51,0.00,,,0.00,meteohub,2013-04-01 13:08:00,
2013-04-01 07:14:00,31.5,14.9,30.00,South,191,0.0,2.0,50,0.00,,,0.00,meteohub,2013-04-01 13:14:00,
2013-04-01 07:19:00,32.9,15.4,30.00,SSW,193,3.0,3.0,48,0.00,,,0.00,meteohub,2013-04-01 13:19:00,
2013-04-01 07:25:00,34.5,15.8,30.00,South,178,3.0,3.0,46,0.00,,,0.00,meteohub,2013-04-01 13:25:00,
2013-04-01 07:31:00,35.2,15.4,30.00,SSE,162,4.0,9.0,44,0.00,,,0.00,meteohub,2013-04-01 13:31:00,
2013-04-01 07:37:00,35.1,15.8,30.01,SSE,165,1.0,9.0,45,0.00,,,0.00,meteohub,2013-04-01 13:37:00,
2013-04-01 07:42:00,34.5,15.4,30.00,SSW,204,2.0,9.0,45,0.00,,,0.00,meteohub,2013-04-01 13:42:00,
2013-04-01 07:47:00,34.0,15.4,30.00,SE,133,2.0,8.0,46,0.00,,,0.00,meteohub,2013-04-01 13:47:00,
2013-04-01 07:52:00,33.4,15.4,30.00,SSE,151,2.0,8.0,47,0.00,,,0.00,meteohub,2013-04-01 13:52:00,
2013-04-01 07:58:00,33.6,16.0,30.01,WSW,238,1.0,5.0,48,0.00,,,0.00,meteohub,2013-04-01 13:58:00,
2013-04-01 08:03:00,34.3,16.2,30.00,South,186,3.0,6.0,47,0.00,,,0.00,meteohub,2013-04-01 14:03:00,
2013-04-01 08:09:00,35.1,16.3,30.00,SW,224,7.0,8.0,46,0.00,,,0.00,meteohub,2013-04-01 14:09:00,
2013-04-01 08:14:00,35.6,16.9,30.01,SW,221,8.0,11.0,46,0.00,,,0.00,meteohub,2013-04-01 14:14:00,
2013-04-01 08:20:00,35.8,17.1,30.00,West,270,9.0,13.0,46,0.00,,,0.00,meteohub,2013-04-01 14:20:00,
2013-04-01 08:25:00,36.0,17.2,29.99,SSW,203,4.0,13.0,46,0.00,,,0.00,meteohub,2013-04-01 14:25:00,
2013-04-01 08:32:00,35.8,17.1,29.99,SE,143,4.0,11.0,46,0.00,,,0.00,meteohub,2013-04-01 14:32:00,
2013-04-01 08:37:00,35.8,17.1,29.99,West,260,0.0,10.0,46,0.00,,,0.00,meteohub,2013-04-01 14:37:00,
2013-04-01 08:42:00,36.1,17.4,29.99,SSE,150,4.0,9.0,46,0.00,,,0.00,meteohub,2013-04-01 14:42:00,
2013-04-01 08:48:00,36.3,17.1,29.99,SE,129,8.0,9.0,45,0.00,,,0.00,meteohub,2013-04-01 14:48:00,
2013-04-01 08:53:00,37.0,17.6,29.99,SSE,155,4.0,9.0,45,0.00,,,0.00,meteohub,2013-04-01 14:53:00,
2013-04-01 08:59:00,38.1,18.1,29.98,South,190,8.0,9.0,44,0.00,,,0.00,meteohub,2013-04-01 14:59:00,
2013-04-01 09:04:00,38.5,18.0,29.98,SSE,147,8.0,10.0,43,0.00,,,0.00,meteohub,2013-04-01 15:04:00,
2013-04-01 09:10:00,38.8,18.3,29.98,SE,136,3.0,10.0,43,0.00,,,0.00,meteohub,2013-04-01 15:10:00,
2013-04-01 09:16:00,39.2,18.5,29.98,SSW,193,6.0,11.0,43,0.00,,,0.00,meteohub,2013-04-01 15:16:00,
2013-04-01 09:21:00,39.7,19.0,29.97,SSE,160,6.0,11.0,43,0.00,,,0.00,meteohub,2013-04-01 15:21:00,
2013-04-01 09:27:00,40.1,19.4,29.97,SSE,160,4.0,11.0,43,0.00,,,0.00,meteohub,2013-04-01 15:27:00,
2013-04-01 09:32:00,40.6,19.4,29.97,SSE,165,6.0,10.0,42,0.00,,,0.00,meteohub,2013-04-01 15:32:00,
2013-04-01 09:37:00,40.5,19.8,29.97,SSE,156,6.0,10.0,43,0.00,,,0.00,meteohub,2013-04-01 15:37:00,
2013-04-01 09:42:00,40.6,19.9,29.97,SE,127,2.0,9.0,43,0.00,,,0.00,meteohub,2013-04-01 15:42:00,
2013-04-01 09:47:00,41.2,19.8,29.97,SE,129,2.0,9.0,42,0.00,,,0.00,meteohub,2013-04-01 15:47:00,
2013-04-01 09:52:00,41.7,19.8,29.96,ENE,63,1.0,10.0,41,0.00,,,0.00,meteohub,2013-04-01 15:52:00,
2013-04-01 09:57:00,42.1,20.1,29.96,ESE,114,1.0,10.0,41,0.00,,,0.00,meteohub,2013-04-01 15:57:00,
2013-04-01 10:03:00,42.3,20.3,29.96,ESE,118,8.0,10.0,41,0.00,,,0.00,meteohub,2013-04-01 16:03:00,
2013-04-01 10:08:00,42.3,20.3,29.96,SE,141,3.0,10.0,41,0.00,,,0.00,meteohub,2013-04-01 16:08:00,
2013-04-01 10:14:00,42.4,19.8,29.96,SE,134,2.0,10.0,40,0.00,,,0.00,meteohub,2013-04-01 16:14:00,
2013-04-01 10:19:00,41.5,20.1,29.95,ENE,78,3.0,10.0,42,0.00,,,0.00,meteohub,2013-04-01 16:19:00,
2013-04-01 10:25:00,41.5,20.1,29.94,SSE,155,3.0,8.0,42,0.00,,,0.00,meteohub,2013-04-01 16:25:00,
2013-04-01 10:31:00,41.9,20.5,29.94,South,175,7.0,9.0,42,0.00,,,0.00,meteohub,2013-04-01 16:31:00,
2013-04-01 10:36:00,42.3,21.4,29.94,NNW,330,2.0,9.0,43,0.00,,,0.00,meteohub,2013-04-01 16:36:00,
2013-04-01 10:42:00,43.5,21.4,29.93,SSE,151,3.0,9.0,41,0.00,,,0.00,meteohub,2013-04-01 16:42:00,
2013-04-01 10:47:00,43.3,20.7,29.93,WSW,241,3.0,9.0,40,0.00,,,0.00,meteohub,2013-04-01 16:47:00,
2013-04-01 10:52:00,43.0,20.8,29.93,ESE,110,4.0,7.0,41,0.00,,,0.00,meteohub,2013-04-01 16:52:00,
2013-04-01 10:58:00,42.8,21.4,29.93,SSE,148,0.0,7.0,42,0.00,,,0.00,meteohub,2013-04-01 16:58:00,
2013-04-01 11:04:00,43.5,21.4,29.93,SSE,149,3.0,6.0,41,0.00,,,0.00,meteohub,2013-04-01 17:04:00,
2013-04-01 11:09:00,44.1,21.9,29.92,ESE,110,3.0,5.0,41,0.00,,,0.00,meteohub,2013-04-01 17:09:00,
2013-04-01 11:15:00,43.9,21.7,29.92,ESE,104,0.0,5.0,41,0.00,,,0.00,meteohub,2013-04-01 17:15:00,
2013-04-01 11:21:00,44.1,21.9,29.91,SE,143,2.0,7.0,41,0.00,,,0.00,meteohub,2013-04-01 17:21:00,
2013-04-01 11:27:00,44.4,22.1,29.91,SSW,210,2.0,7.0,41,0.00,,,0.00,meteohub,2013-04-01 17:27:00,
2013-04-01 11:32:00,45.1,22.3,29.90,SE,141,1.0,8.0,40,0.00,,,0.00,meteohub,2013-04-01 17:32:00,
2013-04-01 11:37:00,46.0,23.0,29.90,SSE,167,4.0,8.0,40,0.00,,,0.00,meteohub,2013-04-01 17:37:00,
2013-04-01 11:42:00,47.1,22.8,29.89,SE,146,2.0,8.0,38,0.00,,,0.00,meteohub,2013-04-01 17:42:00,
2013-04-01 11:48:00,47.3,23.0,29.89,ESE,113,0.0,8.0,38,0.00,,,0.00,meteohub,2013-04-01 17:48:00,
2013-04-01 11:53:00,48.4,23.4,29.89,SE,128,5.0,10.0,37,0.00,,,0.00,meteohub,2013-04-01 17:53:00,
2013-04-01 11:59:00,48.7,23.0,29.88,WSW,245,2.0,10.0,36,0.00,,,0.00,meteohub,2013-04-01 17:59:00,
2013-04-01 12:04:00,48.9,23.2,29.88,South,169,2.0,9.0,36,0.00,,,0.00,meteohub,2013-04-01 18:04:00,
2013-04-01 12:10:00,50.4,22.3,29.88,East,96,0.0,8.0,33,0.00,,,0.00,meteohub,2013-04-01 18:10:00,
2013-04-01 12:15:00,51.1,23.0,29.87,SSW,193,6.0,8.0,33,0.00,,,0.00,meteohub,2013-04-01 18:15:00,
2013-04-01 12:21:00,51.6,22.6,29.87,South,173,6.0,8.0,32,0.00,,,0.00,meteohub,2013-04-01 18:21:00,
2013-04-01 12:27:00,51.6,22.6,29.86,SE,134,4.0,9.0,32,0.00,,,0.00,meteohub,2013-04-01 18:27:00,
2013-04-01 12:32:00,52.0,22.3,29.86,ESE,110,4.0,13.0,31,0.00,,,0.00,meteohub,2013-04-01 18:32:00,
2013-04-01 12:38:00,52.9,22.3,29.86,SE,125,8.0,13.0,30,0.00,,,0.00,meteohub,2013-04-01 18:38:00,
2013-04-01 12:43:00,52.3,21.7,29.85,ESE,117,3.0,12.0,30,0.00,,,0.00,meteohub,2013-04-01 18:43:00,
2013-04-01 12:49:00,52.2,21.7,29.85,SE,132,7.0,12.0,30,0.00,,,0.00,meteohub,2013-04-01 18:49:00,
2013-04-01 12:55:00,52.7,22.1,29.84,ESE,118,13.0,13.0,30,0.00,,,0.00,meteohub,2013-04-01 18:55:00,
2013-04-01 13:01:00,52.0,20.7,29.84,South,184,0.0,15.0,29,0.00,,,0.00,meteohub,2013-04-01 19:01:00,
2013-04-01 13:06:00,53.1,20.8,29.84,ESE,111,1.0,15.0,28,0.00,,,0.00,meteohub,2013-04-01 19:06:00,
2013-04-01 13:12:00,53.1,19.9,29.83,NE,39,4.0,13.0,27,0.00,,,0.00,meteohub,2013-04-01 19:12:00,
2013-04-01 13:17:00,53.2,21.0,29.83,SSE,164,5.0,7.0,28,0.00,,,0.00,meteohub,2013-04-01 19:17:00,
2013-04-01 13:22:00,54.0,20.7,29.82,ESE,104,6.0,12.0,27,0.00,,,0.00,meteohub,2013-04-01 19:22:00,
2013-04-01 13:27:00,54.1,20.8,29.82,WNW,293,1.0,12.0,27,0.00,,,0.00,meteohub,2013-04-01 19:27:00,
2013-04-01 13:33:00,54.7,20.5,29.81,ESE,117,2.0,12.0,26,0.00,,,0.00,meteohub,2013-04-01 19:33:00,
2013-04-01 13:38:00,54.5,19.4,29.81,SSW,204,6.0,13.0,25,0.00,,,0.00,meteohub,2013-04-01 19:38:00,
2013-04-01 13:44:00,54.1,19.0,29.81,SE,146,4.0,13.0,25,0.00,,,0.00,meteohub,2013-04-01 19:44:00,
2013-04-01 13:49:00,54.1,19.9,29.81,SE,134,6.0,12.0,26,0.00,,,0.00,meteohub,2013-04-01 19:49:00,
2013-04-01 13:55:00,53.4,19.4,29.80,SE,142,6.0,14.0,26,0.00,,,0.00,meteohub,2013-04-01 19:55:00,
2013-04-01 14:01:00,53.8,19.8,29.79,South,173,5.0,14.0,26,0.00,,,0.00,meteohub,2013-04-01 20:01:00,
2013-04-01 14:06:00,53.8,21.4,29.79,South,176,8.0,16.0,28,0.00,,,0.00,meteohub,2013-04-01 20:06:00,
2013-04-01 14:12:00,53.1,20.8,29.78,SW,228,8.0,16.0,28,0.00,,,0.00,meteohub,2013-04-01 20:12:00,
2013-04-01 14:17:00,52.5,19.4,29.79,SSE,158,9.0,19.0,27,0.00,,,0.00,meteohub,2013-04-01 20:17:00,
2013-04-01 14:23:00,52.3,20.1,29.79,SSE,162,9.0,19.0,28,0.00,,,0.00,meteohub,2013-04-01 20:23:00,
2013-04-01 14:28:00,52.0,20.7,29.78,SE,135,7.0,18.0,29,0.00,,,0.00,meteohub,2013-04-01 20:28:00,
2013-04-01 14:34:00,52.2,20.8,29.78,SW,214,3.0,17.0,29,0.00,,,0.00,meteohub,2013-04-01 20:34:00,
2013-04-01 14:39:00,52.3,20.1,29.77,SSE,158,11.0,17.0,28,0.00,,,0.00,meteohub,2013-04-01 20:39:00,
2013-04-01 14:45:00,52.3,20.1,29.77,South,183,7.0,17.0,28,0.00,,,0.00,meteohub,2013-04-01 20:45:00,
2013-04-01 14:51:00,52.3,21.0,29.77,South,184,4.0,14.0,29,0.00,,,0.00,meteohub,2013-04-01 20:51:00,
2013-04-01 14:56:00,52.3,20.1,29.76,ESE,115,5.0,15.0,28,0.00,,,0.00,meteohub,2013-04-01 20:56:00,
2013-04-01 15:02:00,53.2,19.2,29.75,NNE,22,5.0,20.0,26,0.00,,,0.00,meteohub,2013-04-01 21:02:00,
2013-04-01 15:07:00,53.2,19.2,29.75,SSE,150,15.0,20.0,26,0.00,,,0.00,meteohub,2013-04-01 21:07:00,
2013-04-01 15:12:00,53.2,21.7,29.75,ESE,108,5.0,20.0,29,0.00,,,0.00,meteohub,2013-04-01 21:12:00,
2013-04-01 15:17:00,52.9,21.6,29.75,ENE,60,4.0,20.0,29,0.00,,,0.00,meteohub,2013-04-01 21:17:00,
2013-04-01 15:22:00,53.4,21.2,29.75,SSE,152,4.0,19.0,28,0.00,,,0.00,meteohub,2013-04-01 21:22:00,
2013-04-01 15:27:00,53.1,21.6,29.75,SSE,165,1.0,16.0,29,0.00,,,0.00,meteohub,2013-04-01 21:27:00,
2013-04-01 15:32:00,52.9,20.7,29.75,East,79,11.0,15.0,28,0.00,,,0.00,meteohub,2013-04-01 21:32:00,
2013-04-01 15:37:00,52.9,20.7,29.75,SSE,165,7.0,14.0,28,0.00,,,0.00,meteohub,2013-04-01 21:37:00,
2013-04-01 15:42:00,53.4,21.2,29.75,ESE,112,6.0,15.0,28,0.00,,,0.00,meteohub,2013-04-01 21:42:00,
2013-04-01 15:47:00,54.7,17.6,29.74,SSW,194,2.0,15.0,23,0.00,,,0.00,meteohub,2013-04-01 21:47:00,
2013-04-01 15:52:00,54.5,21.2,29.74,East,97,8.0,14.0,27,0.00,,,0.00,meteohub,2013-04-01 21:52:00,
2013-04-01 15:57:00,53.4,20.3,29.74,SSE,156,15.0,17.0,27,0.00,,,0.00,meteohub,2013-04-01 21:57:00,
2013-04-01 16:03:00,53.2,21.0,29.73,East,90,8.0,17.0,28,0.00,,,0.00,meteohub,2013-04-01 22:03:00,
2013-04-01 16:08:00,53.4,20.3,29.73,SSW,197,11.0,16.0,27,0.00,,,0.00,meteohub,2013-04-01 22:08:00,
2013-04-01 16:14:00,53.6,21.2,29.74,SSW,197,8.0,16.0,28,0.00,,,0.00,meteohub,2013-04-01 22:14:00,
2013-04-01 16:19:00,53.6,22.1,29.73,SSE,155,8.0,15.0,29,0.00,,,0.00,meteohub,2013-04-01 22:19:00,
2013-04-01 16:25:00,53.8,21.4,29.74,East,94,4.0,17.0,28,0.00,,,0.00,meteohub,2013-04-01 22:25:00,
2013-04-01 16:30:00,53.6,21.2,29.74,SSE,163,10.0,17.0,28,0.00,,,0.00,meteohub,2013-04-01 22:30:00,
2013-04-01 16:36:00,53.4,20.3,29.74,ESE,120,9.0,14.0,27,0.00,,,0.00,meteohub,2013-04-01 22:36:00,
2013-04-01 16:41:00,53.4,21.9,29.74,SE,146,1.0,13.0,29,0.00,,,0.00,meteohub,2013-04-01 22:41:00,
2013-04-01 16:47:00,53.8,21.4,29.74,ESE,110,2.0,12.0,28,0.00,,,0.00,meteohub,2013-04-01 22:47:00,
2013-04-01 16:52:00,54.3,21.0,29.74,WSW,240,5.0,12.0,27,0.00,,,0.00,meteohub,2013-04-01 22:52:00,
2013-04-01 16:57:00,55.4,21.0,29.73,South,180,8.0,8.0,26,0.00,,,0.00,meteohub,2013-04-01 22:57:00,
2013-04-01 17:02:00,54.7,21.4,29.73,SSE,162,9.0,10.0,27,0.00,,,0.00,meteohub,2013-04-01 23:02:00,
2013-04-01 17:07:00,54.3,21.0,29.74,South,181,5.0,11.0,27,0.00,,,0.00,meteohub,2013-04-01 23:07:00,
2013-04-01 17:12:00,54.7,22.3,29.73,SSE,158,5.0,11.0,28,0.00,,,0.00,meteohub,2013-04-01 23:12:00,
2013-04-01 17:17:00,55.0,22.5,29.73,South,191,4.0,14.0,28,0.00,,,0.00,meteohub,2013-04-01 23:17:00,
2013-04-01 17:23:00,54.9,21.6,29.73,SSE,165,7.0,14.0,27,0.00,,,0.00,meteohub,2013-04-01 23:23:00,
2013-04-01 17:29:00,54.7,23.0,29.74,SW,235,11.0,14.0,29,0.00,,,0.00,meteohub,2013-04-01 23:29:00,
2013-04-01 17:34:00,53.2,23.4,29.74,SSE,156,9.0,16.0,31,0.00,,,0.00,meteohub,2013-04-01 23:34:00,
2013-04-01 17:40:00,52.0,23.7,29.75,SSW,211,8.0,17.0,33,0.00,,,0.00,meteohub,2013-04-01 23:40:00,
2013-04-01 17:46:00,51.1,23.7,29.75,SE,132,5.0,17.0,34,0.00,,,0.00,meteohub,2013-04-01 23:46:00,
2013-04-01 17:51:00,50.7,24.1,29.75,East,82,3.0,16.0,35,0.00,,,0.00,meteohub,2013-04-01 23:51:00,
2013-04-01 17:57:00,51.1,25.0,29.75,NE,41,5.0,16.0,36,0.00,,,0.00,meteohub,2013-04-01 23:57:00,
2013-04-01 18:02:00,50.4,24.4,29.75,SE,142,4.0,16.0,36,0.00,,,0.00,meteohub,2013-04-02 00:02:00,
2013-04-01 18:07:00,49.6,23.7,29.75,South,177,6.0,16.0,36,0.00,,,0.00,meteohub,2013-04-02 00:07:00,
2013-04-01 18:12:00,48.4,23.9,29.75,SW,231,4.0,14.0,38,0.00,,,0.00,meteohub,2013-04-02 00:12:00,
2013-04-01 18:18:00,47.7,24.4,29.75,SSW,196,5.0,15.0,40,0.00,,,0.00,meteohub,2013-04-02 00:18:00,
2013-04-01 18:23:00,47.1,24.1,29.75,SSW,198,10.0,15.0,40,0.00,,,0.00,meteohub,2013-04-02 00:23:00,
2013-04-01 18:29:00,46.8,24.3,29.75,NNE,25,11.0,14.0,41,0.00,,,0.00,meteohub,2013-04-02 00:29:00,
2013-04-01 18:34:00,46.4,23.9,29.75,SSW,193,7.0,18.0,41,0.00,,,0.00,meteohub,2013-04-02 00:34:00,
2013-04-01 18:40:00,45.9,24.1,29.75,SSW,204,8.0,18.0,42,0.00,,,0.00,meteohub,2013-04-02 00:40:00,
2013-04-01 18:45:00,45.7,24.4,29.76,SSE,157,14.0,16.0,43,0.00,,,0.00,meteohub,2013-04-02 00:45:00,
2013-04-01 18:51:00,44.8,24.3,29.76,SE,146,6.0,17.0,44,0.00,,,0.00,meteohub,2013-04-02 00:51:00,
2013-04-01 18:57:00,44.1,24.6,29.76,SW,218,7.0,18.0,46,0.00,,,0.00,meteohub,2013-04-02 00:57:00,
2013-04-01 19:02:00,43.2,24.3,29.77,NNE,27,11.0,18.0,47,0.00,,,0.00,meteohub,2013-04-02 01:02:00,
2013-04-01 19:07:00,42.6,24.3,29.77,SW,229,17.0,17.0,48,0.00,,,0.00,meteohub,2013-04-02 01:07:00,
2013-04-01 19:13:00,42.3,24.4,29.77,SSW,205,10.0,18.0,49,0.00,,,0.00,meteohub,2013-04-02 01:13:00,
2013-04-01 19:18:00,41.5,24.3,29.78,WSW,240,16.0,21.0,50,0.00,,,0.00,meteohub,2013-04-02 01:18:00,
2013-04-01 19:24:00,41.0,24.3,29.78,SSW,203,7.0,22.0,51,0.00,,,0.00,meteohub,2013-04-02 01:24:00,
2013-04-01 19:29:00,40.6,24.4,29.78,SW,233,7.0,22.0,52,0.00,,,0.00,meteohub,2013-04-02 01:29:00,
2013-04-01 19:35:00,40.3,24.4,29.79,SSW,204,11.0,21.0,53,0.00,,,0.00,meteohub,2013-04-02 01:35:00,
2013-04-01 19:41:00,39.9,24.6,29.80,SSW,207,14.0,21.0,54,0.00,,,0.00,meteohub,2013-04-02 01:41:00,
2013-04-01 19:46:00,39.6,24.3,29.80,NNE,29,7.0,22.0,54,0.00,,,0.00,meteohub,2013-04-02 01:46:00,
2013-04-01 19:52:00,39.4,24.6,29.81,SW,229,13.0,22.0,55,0.00,,,0.00,meteohub,2013-04-02 01:52:00,
2013-04-01 19:57:00,39.0,24.6,29.81,SW,226,12.0,22.0,56,0.00,,,0.00,meteohub,2013-04-02 01:57:00,
2013-04-01 20:03:00,38.7,24.8,29.81,SSW,205,6.0,19.0,57,0.00,,,0.00,meteohub,2013-04-02 02:03:00,
2013-04-01 20:08:00,37.9,24.4,29.81,SE,132,15.0,20.0,58,0.00,,,0.00,meteohub,2013-04-02 02:08:00,
2013-04-01 20:14:00,37.8,24.3,29.82,SSW,200,9.0,21.0,58,0.00,,,0.00,meteohub,2013-04-02 02:14:00,
2013-04-01 20:19:00,37.4,24.4,29.82,WNW,290,9.0,21.0,59,0.00,,,0.00,meteohub,2013-04-02 02:19:00,
2013-04-01 20:25:00,37.2,24.6,29.83,NNE,16,14.0,22.0,60,0.00,,,0.00,meteohub,2013-04-02 02:25:00,
2013-04-01 20:31:00,37.0,24.4,29.84,SSW,211,6.0,22.0,60,0.00,,,0.00,meteohub,2013-04-02 02:31:00,
2013-04-01 20:37:00,37.0,24.4,29.84,WSW,239,15.0,22.0,60,0.00,,,0.00,meteohub,2013-04-02 02:37:00,
2013-04-01 20:42:00,36.9,24.3,29.85,SSW,200,8.0,20.0,60,0.00,,,0.00,meteohub,2013-04-02 02:42:00,
2013-04-01 20:47:00,36.7,24.4,29.87,SSE,150,5.0,19.0,61,0.00,,,0.00,meteohub,2013-04-02 02:47:00,
2013-04-01 20:52:00,36.3,24.1,29.87,SSW,197,8.0,19.0,61,0.00,,,0.00,meteohub,2013-04-02 02:52:00,
2013-04-01 20:57:00,36.1,24.4,29.87,WSW,239,7.0,17.0,62,0.00,,,0.00,meteohub,2013-04-02 02:57:00,
2013-04-01 21:02:00,36.0,24.3,29.87,South,186,10.0,16.0,62,0.00,,,0.00,meteohub,2013-04-02 03:02:00,
2013-04-01 21:08:00,35.4,24.1,29.88,SSW,200,7.0,16.0,63,0.00,,,0.00,meteohub,2013-04-02 03:08:00,
2013-04-01 21:13:00,35.2,24.3,29.88,South,181,7.0,17.0,64,0.00,,,0.00,meteohub,2013-04-02 03:13:00,
2013-04-01 21:19:00,34.9,23.9,29.89,SSW,212,11.0,17.0,64,0.00,,,0.00,meteohub,2013-04-02 03:19:00,
2013-04-01 21:24:00,34.5,23.9,29.89,WSW,240,2.0,17.0,65,0.00,,,0.00,meteohub,2013-04-02 03:24:00,
2013-04-01 21:30:00,34.2,24.1,29.89,WNW,291,10.0,13.0,66,0.00,,,0.00,meteohub,2013-04-02 03:30:00,
2013-04-01 21:35:00,34.0,23.9,29.90,SSW,198,9.0,15.0,66,0.00,,,0.00,meteohub,2013-04-02 03:35:00,
2013-04-01 21:41:00,33.8,24.1,29.90,West,279,8.0,16.0,67,0.00,,,0.00,meteohub,2013-04-02 03:41:00,
2013-04-01 21:46:00,33.6,23.9,29.90,South,188,4.0,16.0,67,0.00,,,0.00,meteohub,2013-04-02 03:46:00,
2013-04-01 21:52:00,33.4,23.7,29.90,SW,221,7.0,16.0,67,0.00,,,0.00,meteohub,2013-04-02 03:52:00,
2013-04-01 21:57:00,33.3,23.9,29.90,SSW,206,16.0,16.0,68,0.00,,,0.00,meteohub,2013-04-02 03:57:00,
2013-04-01 22:00:00,33.3,23.9,29.91,South,178,7.0,16.0,68,0.00,,,0.00,meteohub,2013-04-02 04:00:00,
2013-04-01 22:02:00,33.3,23.9,29.91,SW,219,11.0,16.0,68,0.00,,,0.00,meteohub,2013-04-02 04:02:00,
2013-04-01 22:03:00,33.1,23.7,29.91,SW,231,11.0,16.0,68,0.00,,,0.00,meteohub,2013-04-02 04:03:00,
2013-04-01 22:09:00,32.7,23.7,29.91,ENE,70,9.0,16.0,69,0.00,,,0.00,meteohub,2013-04-02 04:09:00,
2013-04-01 22:14:00,32.5,23.9,29.91,SW,215,7.0,16.0,70,0.00,,,0.00,meteohub,2013-04-02 04:14:00,
2013-04-01 22:20:00,32.4,23.7,29.92,SSW,193,7.0,17.0,70,0.00,,,0.00,meteohub,2013-04-02 04:20:00,
2013-04-01 22:25:00,32.4,23.7,29.92,SSW,210,6.0,17.0,70,0.00,,,0.00,meteohub,2013-04-02 04:25:00,
2013-04-01 22:31:00,32.0,23.7,29.91,West,266,10.0,16.0,71,0.00,,,0.00,meteohub,2013-04-02 04:31:00,
2013-04-01 22:36:00,31.6,23.7,29.92,South,174,8.0,17.0,72,0.00,,,0.00,meteohub,2013-04-02 04:36:00,
2013-04-01 22:42:00,31.5,23.5,29.92,NNW,338,7.0,17.0,72,0.00,,,0.00,meteohub,2013-04-02 04:42:00,
2013-04-01 22:47:00,31.3,23.7,29.91,WSW,255,8.0,17.0,73,0.00,,,0.00,meteohub,2013-04-02 04:47:00,
2013-04-01 22:52:00,31.3,23.7,29.92,SSW,193,9.0,17.0,73,0.00,,,0.00,meteohub,2013-04-02 04:52:00,
2013-04-01 22:58:00,31.1,23.5,29.92,SSW,197,7.0,19.0,73,0.00,,,0.00,meteohub,2013-04-02 04:58:00,
2013-04-01 23:03:00,30.9,23.5,29.92,South,176,8.0,19.0,74,0.00,,,0.00,meteohub,2013-04-02 05:03:00,
2013-04-01 23:09:00,30.7,23.4,29.92,South,181,5.0,19.0,74,0.00,,,0.00,meteohub,2013-04-02 05:09:00,
2013-04-01 23:14:00,30.6,23.2,29.92,SW,236,11.0,14.0,74,0.00,,,0.00,meteohub,2013-04-02 05:14:00,
2013-04-01 23:20:00,30.6,23.2,29.92,SE,146,4.0,15.0,74,0.00,,,0.00,meteohub,2013-04-02 05:20:00,
2013-04-01 23:25:00,30.4,23.4,29.92,ESE,122,16.0,16.0,75,0.00,,,0.00,meteohub,2013-04-02 05:25:00,
2013-04-01 23:31:00,30.2,23.5,29.91,SW,214,3.0,16.0,76,0.00,,,0.00,meteohub,2013-04-02 05:31:00,
2013-04-01 23:37:00,29.8,23.2,29.91,SSE,163,10.0,16.0,76,0.00,,,0.00,meteohub,2013-04-02 05:37:00,
2013-04-01 23:42:00,29.5,23.2,29.91,SSW,212,6.0,16.0,77,0.00,,,0.00,meteohub,2013-04-02 05:42:00,
2013-04-01 23:47:00,28.9,23.0,29.91,SE,124,6.0,15.0,78,0.00,,,0.00,meteohub,2013-04-02 05:47:00,
2013-04-01 23:52:00,28.8,23.0,29.92,WSW,249,4.0,15.0,79,0.00,,,0.00,meteohub,2013-04-02 05:52:00,
2013-04-01 23:57:00,28.6,23.2,29.92,WSW,241,6.0,12.0,80,0.00,,,0.00,meteohub,2013-04-02 05:57:00,